KLM467 HEAX-HECA
Flight info
| Callsign | KLM467 |
|---|---|
| Flight time | 0h 33m |
| Altitude | 17000 |
| Route | ALPAM V604 NOZ L617 CVO |
| Aircraft | B739/M-SDE2E3FGHIRWXY/LB1 |
Departure
| Time | 2026-04-22 21:20 |
|---|---|
| Airport | Alexandria International Airport (HEAX) |
Arrival
| Time | 2026-04-22 21:54 |
|---|---|
| Airport | Cairo International Airport (HECA) |
| Time | Latitude | Longitude | Altitude | Speed | Heading |
|---|---|---|---|---|---|
| 2026-04-22 21:07 | 30.93285 | 29.69457 | 167 ft | 0 kts | 53° |
| 2026-04-22 21:14 | 30.93283 | 29.69453 | 167 ft | 3 kts | 53° |
| 2026-04-22 21:14 | 30.93267 | 29.69428 | 166 ft | 4 kts | 54° |
| 2026-04-22 21:15 | 30.93251 | 29.69402 | 166 ft | 4 kts | 51° |
| 2026-04-22 21:15 | 30.93233 | 29.69381 | 167 ft | 4 kts | 24° |
| 2026-04-22 21:15 | 30.93230 | 29.69379 | 166 ft | 4 kts | 17° |
| 2026-04-22 21:16 | 30.93227 | 29.69377 | 166 ft | 4 kts | 5° |
| 2026-04-22 21:16 | 30.93218 | 29.69378 | 166 ft | 0 kts | 323° |
| 2026-04-22 21:18 | 30.93246 | 29.69349 | 167 ft | 14 kts | 304° |
| 2026-04-22 21:18 | 30.93191 | 29.69178 | 166 ft | 34 kts | 232° |
| 2026-04-22 21:18 | 30.93043 | 29.68953 | 165 ft | 35 kts | 232° |
| 2026-04-22 21:18 | 30.92902 | 29.68739 | 162 ft | 28 kts | 233° |
| 2026-04-22 21:19 | 30.92787 | 29.68563 | 167 ft | 26 kts | 232° |
| 2026-04-22 21:19 | 30.92660 | 29.68550 | 175 ft | 22 kts | 124° |
| 2026-04-22 21:19 | 30.92459 | 29.68720 | 171 ft | 69 kts | 144° |
| 2026-04-22 21:19 | 30.91855 | 29.69247 | 162 ft | 144 kts | 143° |
| 2026-04-22 21:20 | 30.90899 | 29.70083 | 338 ft | 188 kts | 142° |
| 2026-04-22 21:20 | 30.89770 | 29.71025 | 910 ft | 210 kts | 143° |
| 2026-04-22 21:20 | 30.88535 | 29.72025 | 1590 ft | 226 kts | 143° |
| 2026-04-22 21:20 | 30.87239 | 29.73160 | 2215 ft | 239 kts | 132° |
| 2026-04-22 21:21 | 30.86387 | 29.74867 | 2604 ft | 255 kts | 102° |
| 2026-04-22 21:21 | 30.86425 | 29.76963 | 3039 ft | 269 kts | 70° |
| 2026-04-22 21:21 | 30.87412 | 29.78779 | 3857 ft | 268 kts | 38° |
| 2026-04-22 21:21 | 30.89030 | 29.79780 | 4761 ft | 265 kts | 14° |
| 2026-04-22 21:22 | 30.90821 | 29.80354 | 5580 ft | 269 kts | 12° |
| 2026-04-22 21:22 | 30.92644 | 29.80885 | 6379 ft | 274 kts | 12° |
| 2026-04-22 21:22 | 30.94538 | 29.81439 | 7164 ft | 279 kts | 12° |
| 2026-04-22 21:22 | 30.96410 | 29.81999 | 7923 ft | 284 kts | 12° |
| 2026-04-22 21:23 | 30.98336 | 29.82587 | 8694 ft | 289 kts | 12° |
| 2026-04-22 21:23 | 31.00296 | 29.83193 | 9483 ft | 293 kts | 12° |
| 2026-04-22 21:23 | 31.02280 | 29.83813 | 10254 ft | 297 kts | 12° |
| 2026-04-22 21:23 | 31.04346 | 29.84457 | 10553 ft | 320 kts | 12° |
| 2026-04-22 21:24 | 31.06553 | 29.85232 | 10756 ft | 345 kts | 19° |
| 2026-04-22 21:24 | 31.08700 | 29.86668 | 11018 ft | 366 kts | 33° |
| 2026-04-22 21:24 | 31.10772 | 29.88453 | 11581 ft | 373 kts | 34° |
| 2026-04-22 21:24 | 31.12886 | 29.90239 | 12299 ft | 375 kts | 33° |
| 2026-04-22 21:25 | 31.15007 | 29.92040 | 13012 ft | 379 kts | 38° |
| 2026-04-22 21:25 | 31.16690 | 29.94425 | 13659 ft | 387 kts | 62° |
| 2026-04-22 21:25 | 31.17488 | 29.97431 | 14304 ft | 391 kts | 83° |
| 2026-04-22 21:25 | 31.17378 | 30.00605 | 14892 ft | 394 kts | 104° |
| 2026-04-22 21:26 | 31.16587 | 30.03689 | 15503 ft | 397 kts | 109° |
| 2026-04-22 21:26 | 31.15710 | 30.06764 | 16070 ft | 402 kts | 109° |
| 2026-04-22 21:26 | 31.14815 | 30.09875 | 16642 ft | 406 kts | 109° |
| 2026-04-22 21:26 | 31.13925 | 30.13015 | 17011 ft | 409 kts | 109° |
| 2026-04-22 21:27 | 31.13037 | 30.16209 | 17010 ft | 418 kts | 108° |
| 2026-04-22 21:27 | 31.12144 | 30.19461 | 17019 ft | 422 kts | 108° |
| 2026-04-22 21:27 | 31.11253 | 30.22716 | 17004 ft | 420 kts | 108° |
| 2026-04-22 21:27 | 31.10361 | 30.25959 | 17006 ft | 419 kts | 109° |
| 2026-04-22 21:28 | 31.09218 | 30.29030 | 17009 ft | 417 kts | 121° |
| 2026-04-22 21:28 | 31.07608 | 30.31827 | 17021 ft | 414 kts | 130° |
| 2026-04-22 21:28 | 31.05638 | 30.34260 | 17022 ft | 412 kts | 139° |
| 2026-04-22 21:28 | 31.03535 | 30.36535 | 17021 ft | 413 kts | 139° |
| 2026-04-22 21:29 | 31.01422 | 30.38818 | 17013 ft | 414 kts | 139° |
| 2026-04-22 21:29 | 30.99315 | 30.41103 | 17015 ft | 414 kts | 139° |
| 2026-04-22 21:29 | 30.97204 | 30.43402 | 17017 ft | 415 kts | 139° |
| 2026-04-22 21:29 | 30.95094 | 30.45707 | 17015 ft | 415 kts | 139° |
| 2026-04-22 21:30 | 30.92987 | 30.48013 | 17016 ft | 416 kts | 139° |
| 2026-04-22 21:30 | 30.90877 | 30.50325 | 17016 ft | 416 kts | 139° |
| 2026-04-22 21:30 | 30.88768 | 30.52637 | 17016 ft | 416 kts | 139° |
| 2026-04-22 21:30 | 30.86665 | 30.54940 | 17016 ft | 416 kts | 139° |
| 2026-04-22 21:31 | 30.84550 | 30.57256 | 17017 ft | 416 kts | 139° |
| 2026-04-22 21:31 | 30.82438 | 30.59566 | 17012 ft | 416 kts | 138° |
| 2026-04-22 21:31 | 30.80330 | 30.61872 | 17016 ft | 416 kts | 138° |
| 2026-04-22 21:31 | 30.78222 | 30.64174 | 17017 ft | 415 kts | 138° |
| 2026-04-22 21:32 | 30.76117 | 30.66473 | 17012 ft | 415 kts | 138° |
| 2026-04-22 21:32 | 30.74011 | 30.68771 | 17016 ft | 415 kts | 139° |
| 2026-04-22 21:32 | 30.71904 | 30.71068 | 17017 ft | 414 kts | 139° |
| 2026-04-22 21:32 | 30.69804 | 30.73356 | 17016 ft | 414 kts | 139° |
| 2026-04-22 21:33 | 30.67730 | 30.75615 | 17019 ft | 414 kts | 139° |
| 2026-04-22 21:33 | 30.65626 | 30.77905 | 17014 ft | 414 kts | 139° |
| 2026-04-22 21:33 | 30.63527 | 30.80189 | 17017 ft | 414 kts | 139° |
| 2026-04-22 21:33 | 30.61420 | 30.82479 | 17014 ft | 414 kts | 139° |
| 2026-04-22 21:34 | 30.59321 | 30.84759 | 17017 ft | 414 kts | 139° |
| 2026-04-22 21:34 | 30.57216 | 30.87044 | 17017 ft | 414 kts | 139° |
| 2026-04-22 21:34 | 30.55113 | 30.89326 | 17017 ft | 414 kts | 139° |
| 2026-04-22 21:34 | 30.53006 | 30.91611 | 17014 ft | 412 kts | 139° |
| 2026-04-22 21:35 | 30.50956 | 30.93835 | 16996 ft | 396 kts | 139° |
| 2026-04-22 21:35 | 30.48975 | 30.95983 | 16785 ft | 387 kts | 138° |
| 2026-04-22 21:35 | 30.47020 | 30.98099 | 16426 ft | 380 kts | 138° |
| 2026-04-22 21:35 | 30.45094 | 31.00182 | 15984 ft | 376 kts | 138° |
| 2026-04-22 21:36 | 30.43194 | 31.02235 | 15510 ft | 373 kts | 138° |
| 2026-04-22 21:36 | 30.41302 | 31.04279 | 15040 ft | 370 kts | 138° |
| 2026-04-22 21:36 | 30.39424 | 31.06306 | 14570 ft | 368 kts | 138° |
| 2026-04-22 21:36 | 30.37556 | 31.08322 | 14103 ft | 365 kts | 138° |
| 2026-04-22 21:37 | 30.35707 | 31.10317 | 13621 ft | 363 kts | 138° |
| 2026-04-22 21:37 | 30.33860 | 31.12308 | 13113 ft | 361 kts | 138° |
| 2026-04-22 21:37 | 30.32027 | 31.14283 | 12602 ft | 358 kts | 138° |
| 2026-04-22 21:37 | 30.30211 | 31.16240 | 12148 ft | 356 kts | 138° |
| 2026-04-22 21:38 | 30.28426 | 31.18161 | 11687 ft | 353 kts | 138° |
| 2026-04-22 21:38 | 30.26634 | 31.20089 | 11228 ft | 351 kts | 138° |
| 2026-04-22 21:38 | 30.24849 | 31.22009 | 10769 ft | 349 kts | 138° |
| 2026-04-22 21:38 | 30.23092 | 31.23897 | 10565 ft | 339 kts | 138° |
| 2026-04-22 21:39 | 30.21388 | 31.25729 | 10405 ft | 329 kts | 137° |
| 2026-04-22 21:39 | 30.19741 | 31.27498 | 10260 ft | 319 kts | 137° |
| 2026-04-22 21:39 | 30.18138 | 31.29218 | 10124 ft | 309 kts | 137° |
| 2026-04-22 21:39 | 30.16588 | 31.30882 | 10004 ft | 299 kts | 137° |
| 2026-04-22 21:40 | 30.15085 | 31.32495 | 9647 ft | 298 kts | 137° |
| 2026-04-22 21:40 | 30.13564 | 31.34124 | 9318 ft | 296 kts | 137° |
| 2026-04-22 21:40 | 30.12058 | 31.35736 | 8960 ft | 296 kts | 137° |
| 2026-04-22 21:40 | 30.10496 | 31.37296 | 8607 ft | 295 kts | 148° |
| 2026-04-22 21:41 | 30.08577 | 31.38040 | 8261 ft | 291 kts | 180° |
| 2026-04-22 21:41 | 30.06611 | 31.37689 | 7962 ft | 285 kts | 201° |
| 2026-04-22 21:41 | 30.04774 | 31.36851 | 7643 ft | 283 kts | 204° |
| 2026-04-22 21:41 | 30.02956 | 31.35960 | 7308 ft | 283 kts | 205° |
| 2026-04-22 21:42 | 30.01140 | 31.35073 | 6977 ft | 283 kts | 204° |
| 2026-04-22 21:42 | 29.99340 | 31.34210 | 6647 ft | 283 kts | 204° |
| 2026-04-22 21:42 | 29.97489 | 31.33335 | 6306 ft | 283 kts | 204° |
| 2026-04-22 21:42 | 29.95686 | 31.32489 | 5958 ft | 283 kts | 204° |
| 2026-04-22 21:43 | 29.93867 | 31.31638 | 5628 ft | 282 kts | 204° |
| 2026-04-22 21:43 | 29.92183 | 31.30465 | 5266 ft | 279 kts | 224° |
| 2026-04-22 21:43 | 29.90807 | 31.28952 | 4963 ft | 276 kts | 227° |
| 2026-04-22 21:43 | 29.89453 | 31.27387 | 4704 ft | 273 kts | 227° |
| 2026-04-22 21:44 | 29.88193 | 31.25831 | 4707 ft | 261 kts | 231° |
| 2026-04-22 21:44 | 29.87026 | 31.24277 | 4636 ft | 252 kts | 233° |
| 2026-04-22 21:44 | 29.85886 | 31.22768 | 4639 ft | 247 kts | 232° |
| 2026-04-22 21:44 | 29.84786 | 31.21239 | 4632 ft | 250 kts | 240° |
| 2026-04-22 21:45 | 29.84232 | 31.19336 | 4657 ft | 256 kts | 271° |
| 2026-04-22 21:45 | 29.84572 | 31.17343 | 4655 ft | 255 kts | 299° |
| 2026-04-22 21:45 | 29.85606 | 31.15719 | 4689 ft | 249 kts | 313° |
| 2026-04-22 21:45 | 29.86769 | 31.14299 | 4645 ft | 237 kts | 317° |
| 2026-04-22 21:46 | 29.87905 | 31.13007 | 4629 ft | 223 kts | 317° |
| 2026-04-22 21:46 | 29.89163 | 31.12123 | 4559 ft | 208 kts | 353° |
| 2026-04-22 21:46 | 29.90526 | 31.12436 | 4572 ft | 203 kts | 27° |
| 2026-04-22 21:46 | 29.91758 | 31.13336 | 4622 ft | 219 kts | 39° |
| 2026-04-22 21:47 | 29.92712 | 31.14746 | 4644 ft | 227 kts | 53° |
| 2026-04-22 21:47 | 29.93606 | 31.16295 | 4635 ft | 236 kts | 53° |
| 2026-04-22 21:47 | 29.94509 | 31.17846 | 4544 ft | 228 kts | 54° |
| 2026-04-22 21:47 | 29.95372 | 31.19322 | 4404 ft | 216 kts | 53° |
| 2026-04-22 21:48 | 29.96182 | 31.20703 | 4316 ft | 202 kts | 53° |
| 2026-04-22 21:48 | 29.96946 | 31.22002 | 4157 ft | 189 kts | 52° |
| 2026-04-22 21:48 | 29.97660 | 31.23214 | 3965 ft | 183 kts | 52° |
| 2026-04-22 21:48 | 29.98395 | 31.24414 | 3766 ft | 183 kts | 47° |
| 2026-04-22 21:49 | 29.99233 | 31.25496 | 3559 ft | 180 kts | 45° |
| 2026-04-22 21:49 | 30.00051 | 31.26551 | 3354 ft | 172 kts | 46° |
| 2026-04-22 21:49 | 30.00821 | 31.27570 | 3112 ft | 165 kts | 47° |
| 2026-04-22 21:49 | 30.01547 | 31.28540 | 2948 ft | 152 kts | 48° |
| 2026-04-22 21:50 | 30.02001 | 31.29148 | 2770 ft | 143 kts | 48° |
| 2026-04-22 21:50 | 30.02862 | 31.30301 | 2542 ft | 146 kts | 48° |
| 2026-04-22 21:50 | 30.03528 | 31.31192 | 2340 ft | 146 kts | 49° |
| 2026-04-22 21:50 | 30.04163 | 31.32095 | 2144 ft | 144 kts | 58° |
| 2026-04-22 21:51 | 30.04582 | 31.33128 | 1992 ft | 141 kts | 65° |
| 2026-04-22 21:51 | 30.04968 | 31.34172 | 1866 ft | 142 kts | 65° |
| 2026-04-22 21:51 | 30.05358 | 31.35229 | 1707 ft | 143 kts | 64° |
| 2026-04-22 21:52 | 30.06101 | 31.36906 | 1340 ft | 141 kts | 59° |
| 2026-04-22 21:52 | 30.06639 | 31.37859 | 1154 ft | 140 kts | 51° |
| 2026-04-22 21:52 | 30.07280 | 31.38712 | 981 ft | 140 kts | 48° |
| 2026-04-22 21:52 | 30.07936 | 31.39557 | 851 ft | 141 kts | 46° |
| 2026-04-22 21:53 | 30.08610 | 31.40396 | 697 ft | 141 kts | 49° |
| 2026-04-22 21:53 | 30.09240 | 31.41257 | 597 ft | 141 kts | 50° |
| 2026-04-22 21:53 | 30.09879 | 31.42126 | 483 ft | 142 kts | 48° |
| 2026-04-22 21:53 | 30.10462 | 31.42901 | 460 ft | 97 kts | 49° |
| 2026-04-22 21:54 | 30.10783 | 31.43324 | 462 ft | 49 kts | 50° |
| 2026-04-22 21:54 | 30.10991 | 31.43514 | 460 ft | 33 kts | 25° |
| 2026-04-22 21:54 | 30.11185 | 31.43606 | 453 ft | 25 kts | 356° |
| 2026-04-22 21:54 | 30.11244 | 31.43449 | 438 ft | 24 kts | 279° |
| 2026-04-22 21:55 | 30.11364 | 31.43309 | 435 ft | 26 kts | 316° |
| 2026-04-22 21:55 | 30.11509 | 31.43162 | 423 ft | 29 kts | 320° |
| 2026-04-22 21:55 | 30.11677 | 31.43005 | 409 ft | 33 kts | 321° |
| 2026-04-22 21:55 | 30.11852 | 31.42817 | 394 ft | 36 kts | 317° |
| 2026-04-22 21:56 | 30.12051 | 31.42629 | 381 ft | 38 kts | 320° |
| 2026-04-22 21:56 | 30.12203 | 31.42409 | 367 ft | 36 kts | 258° |
| 2026-04-22 21:56 | 30.12052 | 31.42202 | 367 ft | 33 kts | 228° |
| 2026-04-22 21:56 | 30.11901 | 31.42007 | 368 ft | 32 kts | 228° |
| 2026-04-22 21:57 | 30.11761 | 31.41814 | 370 ft | 31 kts | 233° |
| 2026-04-22 21:57 | 30.11622 | 31.41629 | 370 ft | 30 kts | 227° |
| 2026-04-22 21:57 | 30.11489 | 31.41456 | 369 ft | 28 kts | 232° |
| 2026-04-22 21:57 | 30.11368 | 31.41288 | 369 ft | 26 kts | 228° |
| 2026-04-22 21:58 | 30.11252 | 31.41136 | 370 ft | 25 kts | 229° |
| 2026-04-22 21:58 | 30.11143 | 31.40992 | 370 ft | 23 kts | 229° |
| 2026-04-22 21:58 | 30.11040 | 31.40854 | 370 ft | 22 kts | 228° |
| 2026-04-22 21:58 | 30.10940 | 31.40721 | 370 ft | 22 kts | 230° |
| 2026-04-22 21:59 | 30.10844 | 31.40588 | 370 ft | 21 kts | 230° |
| 2026-04-22 21:59 | 30.10752 | 31.40460 | 370 ft | 20 kts | 230° |
| 2026-04-22 21:59 | 30.10706 | 31.40317 | 371 ft | 20 kts | 275° |
| 2026-04-22 21:59 | 30.10651 | 31.40181 | 369 ft | 19 kts | 231° |
| 2026-04-22 22:00 | 30.10568 | 31.40063 | 365 ft | 19 kts | 229° |
| 2026-04-22 22:00 | 30.10489 | 31.39950 | 369 ft | 18 kts | 254° |
| 2026-04-22 22:00 | 30.10559 | 31.39844 | 359 ft | 20 kts | 347° |
| 2026-04-22 22:00 | 30.10696 | 31.39812 | 356 ft | 20 kts | 348° |
| 2026-04-22 22:01 | 30.10750 | 31.39712 | 350 ft | 15 kts | 256° |
| 2026-04-22 22:01 | 30.10744 | 31.39687 | 347 ft | 0 kts | 255° |